Terminal Aerodrome Forecast
Issued by NWS Riverton, WY

Home | Current Version | Previous Version | Text Only | Print | Product List | Glossary On
Versions: 1 2 3 4 5 6 7 8 9 10 11 12 13 14 15 16
000
FTUS45 KRIW 202346 AAA
TAFRIW
TAF AMD
KRIW 202346Z 2100/2124 22015G35KT P6SM VCTS SCT080CB BKN150
     FM210130 30006KT P6SM FEW150
     FM211900 29012KT P6SM SCT100=

USA.gov is the U.S. government's official web portal to all federal, state and local government web resources and services.